Aérodrome :
LOGIN :

S'inscrire | Disclaimer

   EN    FR    IT 

 










Légende :    VFR   VFR Marginal   IFR   IFR Intensif   IFR Très Intensif
Visi : 
Plafond : 
>= 8 km
>= 3000ft
5 à 8 km
1000 à 3000 ft
1500m à 5 km
500 à 1000 ft
800 à 1500m
200 à 500 ft
< 800m
< 200 ft
Symboles :   Orages  Brouillard  Fortes neiges  Fortes précipitations  Vent > 20 kt
SIGMETs :   Divers  Orages  Givrage  Turbulence  Onde Orograph.  Cendres Volcan.







- Altitude de l'aérodrome : 286 ft
- Code IATA : FFD


EGVA - RAF Fairford

DERNIER METAR :
  • 180556Z AUTO 20008KT M M FEW012 SCT095 07/07 A2991 RMK AO2 SLP134 T00710065 10081 20062 57004 RVRNO $

METARs EXPIRÉS :
  • 180541Z AUTO 21007KT M M SCT012 07/07 A2991 RMK AO2 SLP133 RVRNO $
  • 180526Z AUTO 21007KT M M BKN013 08/07 A2991 RMK AO2 SLP133 RVRNO $
  • 180456Z AUTO 20007KT M M SCT016 SCT026 08/07 A2991 RMK AO2 SLP133 T00790067 RVRNO $
  • 180451Z AUTO 20008KT M M SCT017 BKN027 08/07 A2991 RMK AO2 SLP133 RVRNO $
  • 180436Z AUTO 21009KT M M FEW019 SCT027 08/07 A2992 RMK AO2 SLP136 RVRNO $
  • 180431Z AUTO 21010KT M M FEW016 SCT027 BKN045 08/07 A2992 RMK AO2 SLP136 RVRNO $
  • 180356Z AUTO 20010KT M M FEW014 BKN050 08/07 A2992 RMK AO2 SLP136 T00790067 RVRNO $
  • 180346Z AUTO 20009KT M M SCT015 BKN050 08/07 A2992 RMK AO2 SLP136 RVRNO $
  • 180316Z AUTO 21009KT M M BKN016 BKN110 08/07 A2993 RMK AO2 SLP140 RVRNO $

Prévision TAF périmée.
Pas de NOTAMs connus pour ce terrain.



MET'MAP, la Météo Aéronautique d'un coup d'oeil ! - Copyright ORBIFLY Décembre 2007 - Disclaimer

ORBIFLY MET'MAP TEAM :

Programmation & Développement : Alexandra Zaïnal
Conception & Développement : Baudouin d'Aumeries
Co-Programmation & Développement : Marc-Olivier Méhu
Soutien technique & logistique : Manuel Goepfert

Contact : metmap@orbifly.com




SOURCES & CREDITS :

   NOAA